sensor_id;sensor_type;location;lat;lon;timestamp;pressure;altitude;pressure_sealevel;temperature;humidity
58739;BME280;44512;53.046;18.604;2024-02-21T00:03:04;102084.04;;;7.38;73.47
58739;BME280;44512;53.046;18.604;2024-02-21T00:13:32;102087.59;;;7.39;73.57
58739;BME280;44512;53.046;18.604;2024-02-21T00:24:01;102084.48;;;7.34;73.75
58739;BME280;44512;53.046;18.604;2024-02-21T00:34:29;102077.41;;;7.33;73.92
58739;BME280;44512;53.046;18.604;2024-02-21T00:44:58;102078.39;;;7.31;74.06
58739;BME280;44512;53.046;18.604;2024-02-21T00:55:26;102068.63;;;7.30;74.35
58739;BME280;44512;53.046;18.604;2024-02-21T01:05:54;102053.03;;;7.34;74.59
58739;BME280;44512;53.046;18.604;2024-02-21T01:16:23;102039.41;;;7.36;74.79
58739;BME280;44512;53.046;18.604;2024-02-21T01:26:51;102024.94;;;7.37;75.02
58739;BME280;44512;53.046;18.604;2024-02-21T01:37:19;102015.02;;;7.37;75.09
58739;BME280;44512;53.046;18.604;2024-02-21T01:47:49;102008.34;;;7.41;75.15
58739;BME280;44512;53.046;18.604;2024-02-21T01:58:17;102003.11;;;7.40;75.15
58739;BME280;44512;53.046;18.604;2024-02-21T02:08:45;102000.70;;;7.37;75.21
58739;BME280;44512;53.046;18.604;2024-02-21T02:19:13;101992.61;;;7.37;75.29
58739;BME280;44512;53.046;18.604;2024-02-21T02:29:41;101990.61;;;7.39;75.41
58739;BME280;44512;53.046;18.604;2024-02-21T02:40:10;101971.07;;;7.37;75.59
58739;BME280;44512;53.046;18.604;2024-02-21T02:50:38;101970.91;;;7.38;75.64
58739;BME280;44512;53.046;18.604;2024-02-21T03:01:07;101960.86;;;7.40;75.70
58739;BME280;44512;53.046;18.604;2024-02-21T03:11:35;101946.54;;;7.40;75.79
58739;BME280;44512;53.046;18.604;2024-02-21T03:22:03;101949.23;;;7.40;75.81
58739;BME280;44512;53.046;18.604;2024-02-21T03:32:32;101935.20;;;7.36;75.89
58739;BME280;44512;53.046;18.604;2024-02-21T03:43:00;101927.97;;;7.37;75.94
58739;BME280;44512;53.046;18.604;2024-02-21T03:53:28;101925.57;;;7.34;75.99
58739;BME280;44512;53.046;18.604;2024-02-21T04:03:57;101917.48;;;7.34;76.15
58739;BME280;44512;53.046;18.604;2024-02-21T04:14:26;101909.28;;;7.35;76.27
58739;BME280;44512;53.046;18.604;2024-02-21T04:24:54;101892.95;;;7.37;76.39
58739;BME280;44512;53.046;18.604;2024-02-21T04:35:22;101890.95;;;7.39;76.52
58739;BME280;44512;53.046;18.604;2024-02-21T04:45:51;101877.48;;;7.39;76.54
58739;BME280;44512;53.046;18.604;2024-02-21T04:56:19;101873.48;;;7.43;76.69
58739;BME280;44512;53.046;18.604;2024-02-21T05:06:47;101855.63;;;7.42;76.81
58739;BME280;44512;53.046;18.604;2024-02-21T05:17:16;101850.26;;;7.42;76.92
58739;BME280;44512;53.046;18.604;2024-02-21T05:27:44;101843.18;;;7.41;77.03
58739;BME280;44512;53.046;18.604;2024-02-21T05:38:13;101834.09;;;7.42;77.07
58739;BME280;44512;53.046;18.604;2024-02-21T05:48:41;101828.70;;;7.42;77.10
58739;BME280;44512;53.046;18.604;2024-02-21T05:59:09;101819.10;;;7.39;77.12
58739;BME280;44512;53.046;18.604;2024-02-21T06:09:38;101804.76;;;7.39;77.25
58739;BME280;44512;53.046;18.604;2024-02-21T06:20:07;101807.16;;;7.42;77.35
58739;BME280;44512;53.046;18.604;2024-02-21T06:30:35;101809.55;;;7.45;77.37
58739;BME280;44512;53.046;18.604;2024-02-21T06:41:03;101805.46;;;7.41;77.40
58739;BME280;44512;53.046;18.604;2024-02-21T06:51:31;101783.59;;;7.44;77.50
58739;BME280;44512;53.046;18.604;2024-02-21T07:02:00;101787.29;;;7.43;77.49
58739;BME280;44512;53.046;18.604;2024-02-21T07:12:28;101771.12;;;7.43;77.55
58739;BME280;44512;53.046;18.604;2024-02-21T07:22:57;101758.38;;;7.45;77.71
58739;BME280;44512;53.046;18.604;2024-02-21T07:33:25;101752.65;;;7.48;77.78
58739;BME280;44512;53.046;18.604;2024-02-21T07:43:54;101746.97;;;7.51;77.84
58739;BME280;44512;53.046;18.604;2024-02-21T07:54:22;101727.11;;;7.52;77.79
58739;BME280;44512;53.046;18.604;2024-02-21T08:04:50;101732.48;;;7.52;77.84
58739;BME280;44512;53.046;18.604;2024-02-21T08:15:19;101727.40;;;7.49;77.87
58739;BME280;44512;53.046;18.604;2024-02-21T08:25:47;101700.16;;;7.52;77.95
58739;BME280;44512;53.046;18.604;2024-02-21T08:36:19;101701.68;;;7.54;77.95
58739;BME280;44512;53.046;18.604;2024-02-21T08:46:44;101683.52;;;7.56;78.05
58739;BME280;44512;53.046;18.604;2024-02-21T08:57:13;101670.60;;;7.60;78.12
58739;BME280;44512;53.046;18.604;2024-02-21T09:07:41;101668.27;;;7.65;78.36
58739;BME280;44512;53.046;18.604;2024-02-21T09:18:09;101681.11;;;7.71;78.52
58739;BME280;44512;53.046;18.604;2024-02-21T09:28:38;101679.26;;;7.72;78.58
58739;BME280;44512;53.046;18.604;2024-02-21T09:39:06;101672.02;;;7.72;78.66
58739;BME280;44512;53.046;18.604;2024-02-21T09:49:35;101678.08;;;7.74;78.75
58739;BME280;44512;53.046;18.604;2024-02-21T10:00:05;101651.13;;;7.74;78.79
58739;BME280;44512;53.046;18.604;2024-02-21T10:10:42;101642.56;;;7.79;78.94
58739;BME280;44512;53.046;18.604;2024-02-21T10:21:06;101636.02;;;7.81;78.92
58739;BME280;44512;53.046;18.604;2024-02-21T10:31:28;101631.98;;;7.86;78.93
58739;BME280;44512;53.046;18.604;2024-02-21T10:42:00;101618.20;;;7.89;79.02
58739;BME280;44512;53.046;18.604;2024-02-21T11:02:54;101599.02;;;7.92;79.43
58739;BME280;44512;53.046;18.604;2024-02-21T11:13:45;101579.13;;;7.93;79.56
58739;BME280;44512;53.046;18.604;2024-02-21T11:23:56;101553.55;;;7.97;79.93
58739;BME280;44512;53.046;18.604;2024-02-21T11:34:19;101533.66;;;7.98;79.85
58739;BME280;44512;53.046;18.604;2024-02-21T11:49:43;101525.41;;;7.99;79.92
58739;BME280;44512;53.046;18.604;2024-02-21T12:00:13;101507.05;;;8.03;80.03
58739;BME280;44512;53.046;18.604;2024-02-21T12:10:36;101509.92;;;8.09;80.21
58739;BME280;44512;53.046;18.604;2024-02-21T12:21:04;101489.72;;;8.14;80.26
58739;BME280;44512;53.046;18.604;2024-02-21T12:31:32;101505.23;;;8.20;80.15
58739;BME280;44512;53.046;18.604;2024-02-21T12:42:00;101484.50;;;8.20;80.04
58739;BME280;44512;53.046;18.604;2024-02-21T12:52:29;101482.32;;;8.24;79.96
58739;BME280;44512;53.046;18.604;2024-02-21T13:02:57;101474.74;;;8.27;79.83
58739;BME280;44512;53.046;18.604;2024-02-21T13:13:25;101468.99;;;8.30;79.77
58739;BME280;44512;53.046;18.604;2024-02-21T13:23:54;101451.13;;;8.29;79.65
58739;BME280;44512;53.046;18.604;2024-02-21T13:34:22;101452.81;;;8.30;79.53
58739;BME280;44512;53.046;18.604;2024-02-21T13:44:51;101441.01;;;8.31;79.62
58739;BME280;44512;53.046;18.604;2024-02-21T13:55:19;101427.20;;;8.34;79.90
58739;BME280;44512;53.046;18.604;2024-02-21T14:05:48;101414.73;;;8.33;80.18
58739;BME280;44512;53.046;18.604;2024-02-21T14:16:16;101410.00;;;8.35;80.41
58739;BME280;44512;53.046;18.604;2024-02-21T14:26:44;101411.70;;;8.37;80.51
58739;BME280;44512;53.046;18.604;2024-02-21T14:37:13;101392.82;;;8.37;80.67
58739;BME280;44512;53.046;18.604;2024-02-21T14:47:41;101388.27;;;8.37;80.81
58739;BME280;44512;53.046;18.604;2024-02-21T14:58:10;101381.89;;;8.38;80.98
58739;BME280;44512;53.046;18.604;2024-02-21T15:08:38;101376.83;;;8.43;81.02
58739;BME280;44512;53.046;18.604;2024-02-21T15:19:06;101372.27;;;8.44;81.04
58739;BME280;44512;53.046;18.604;2024-02-21T15:29:35;101367.71;;;8.44;81.04
58739;BME280;44512;53.046;18.604;2024-02-21T15:40:04;101357.76;;;8.45;80.93
58739;BME280;44512;53.046;18.604;2024-02-21T15:50:31;101352.36;;;8.45;80.76
58739;BME280;44512;53.046;18.604;2024-02-21T16:01:00;101340.55;;;8.46;80.58
58739;BME280;44512;53.046;18.604;2024-02-21T16:11:28;101337.02;;;8.45;80.38
58739;BME280;44512;53.046;18.604;2024-02-21T16:21:56;101344.60;;;8.42;80.13
58739;BME280;44512;53.046;18.604;2024-02-21T16:32:25;101339.05;;;8.43;79.98
58739;BME280;44512;53.046;18.604;2024-02-21T16:42:53;101337.52;;;8.41;79.86
58739;BME280;44512;53.046;18.604;2024-02-21T16:53:22;101339.89;;;8.44;79.80
58739;BME280;44512;53.046;18.604;2024-02-21T17:03:50;101345.10;;;8.45;79.70
58739;BME280;44512;53.046;18.604;2024-02-21T17:14:18;101336.18;;;8.45;79.62
58739;BME280;44512;53.046;18.604;2024-02-21T17:24:47;101333.48;;;8.45;79.55
58739;BME280;44512;53.046;18.604;2024-02-21T17:35:16;101320.83;;;8.45;79.35
58739;BME280;44512;53.046;18.604;2024-02-21T17:45:44;101310.88;;;8.46;79.15
58739;BME280;44512;53.046;18.604;2024-02-21T17:56:13;101314.27;;;8.48;78.96
58739;BME280;44512;53.046;18.604;2024-02-21T18:06:41;101297.57;;;8.44;78.75
58739;BME280;44512;53.046;18.604;2024-02-21T18:17:11;101291.34;;;8.44;78.51
58739;BME280;44512;53.046;18.604;2024-02-21T18:27:37;101283.24;;;8.44;78.31
58739;BME280;44512;53.046;18.604;2024-02-21T18:38:06;101272.45;;;8.44;78.08
58739;BME280;44512;53.046;18.604;2024-02-21T18:48:34;101269.76;;;8.44;77.89
58739;BME280;44512;53.046;18.604;2024-02-21T18:59:03;101260.98;;;8.42;77.62
58739;BME280;44512;53.046;18.604;2024-02-21T19:09:31;101266.37;;;8.42;77.49
58739;BME280;44512;53.046;18.604;2024-02-21T19:20:00;101259.80;;;8.44;77.30
58739;BME280;44512;53.046;18.604;2024-02-21T19:30:28;101267.05;;;8.44;77.13
58739;BME280;44512;53.046;18.604;2024-02-21T19:40:56;101250.69;;;8.45;76.93
58739;BME280;44512;53.046;18.604;2024-02-21T19:51:25;101259.62;;;8.46;76.78
58739;BME280;44512;53.046;18.604;2024-02-21T20:01:53;101240.73;;;8.46;76.65
58739;BME280;44512;53.046;18.604;2024-02-21T20:12:22;101239.06;;;8.45;76.52
58739;BME280;44512;53.046;18.604;2024-02-21T20:22:50;101226.41;;;8.45;76.42
58739;BME280;44512;53.046;18.604;2024-02-21T20:33:19;101206.68;;;8.45;76.29
58739;BME280;44512;53.046;18.604;2024-02-21T20:43:47;101193.52;;;8.50;76.18
58739;BME280;44512;53.046;18.604;2024-02-21T20:54:15;101176.61;;;8.56;76.12
58739;BME280;44512;53.046;18.604;2024-02-21T21:04:44;101165.11;;;8.62;76.01
58739;BME280;44512;53.046;18.604;2024-02-21T21:15:12;101148.58;;;8.65;75.94
58739;BME280;44512;53.046;18.604;2024-02-21T21:25:41;101146.18;;;8.70;75.73
58739;BME280;44512;53.046;18.604;2024-02-21T21:36:09;101133.34;;;8.72;75.57
58739;BME280;44512;53.046;18.604;2024-02-21T21:46:38;101123.76;;;8.70;75.45
58739;BME280;44512;53.046;18.604;2024-02-21T21:57:06;101097.95;;;8.67;75.39
58739;BME280;44512;53.046;18.604;2024-02-21T22:07:34;101081.41;;;8.70;75.23
58739;BME280;44512;53.046;18.604;2024-02-21T22:18:04;101082.06;;;8.72;75.08
58739;BME280;44512;53.046;18.604;2024-02-21T22:28:31;101082.74;;;8.74;74.91
58739;BME280;44512;53.046;18.604;2024-02-21T22:39:00;101078.18;;;8.75;74.77
58739;BME280;44512;53.046;18.604;2024-02-21T22:49:28;101077.34;;;8.74;74.63
58739;BME280;44512;53.046;18.604;2024-02-21T22:59:57;101065.52;;;8.75;74.40
58739;BME280;44512;53.046;18.604;2024-02-21T23:10:25;101053.22;;;8.73;74.08
58739;BME280;44512;53.046;18.604;2024-02-21T23:20:53;101038.24;;;8.70;73.90
58739;BME280;44512;53.046;18.604;2024-02-21T23:31:22;101016.99;;;8.67;73.62
58739;BME280;44512;53.046;18.604;2024-02-21T23:41:50;101009.93;;;8.66;73.42
58739;BME280;44512;53.046;18.604;2024-02-21T23:52:18;101000.80;;;8.67;73.22
